createdAt,value
2019-02-22T00:00:11.721Z,8.59
2019-02-22T00:02:43.705Z,8.55
2019-02-22T00:05:15.725Z,8.56
2019-02-22T00:07:47.700Z,8.52
2019-02-22T00:10:19.690Z,8.45
2019-02-22T00:12:51.686Z,8.41
2019-02-22T00:15:23.647Z,8.39
2019-02-22T00:17:55.654Z,8.34
2019-02-22T00:20:27.622Z,8.25
2019-02-22T00:22:59.623Z,8.20
2019-02-22T00:25:31.572Z,8.17
2019-02-22T00:28:03.591Z,8.13
2019-02-22T00:30:35.537Z,8.10
2019-02-22T00:33:07.541Z,8.13
2019-02-22T00:35:39.530Z,8.13
2019-02-22T00:38:11.526Z,8.12
2019-02-22T00:40:43.497Z,8.16
2019-02-22T00:43:15.483Z,8.18
2019-02-22T00:45:47.441Z,8.18
2019-02-22T00:48:19.415Z,8.18
2019-02-22T00:50:51.393Z,8.17
2019-02-22T00:53:23.381Z,8.16
2019-02-22T00:55:55.365Z,8.16
2019-02-22T00:58:27.359Z,8.16
2019-02-22T01:00:59.328Z,8.16
2019-02-22T01:03:31.296Z,8.16
2019-02-22T01:06:03.268Z,8.18
2019-02-22T01:08:35.252Z,8.17
2019-02-22T01:11:07.224Z,8.16
2019-02-22T01:13:39.244Z,8.12
2019-02-22T01:16:11.202Z,8.13
2019-02-22T01:18:43.211Z,8.12
2019-02-22T01:21:15.205Z,8.08
2019-02-22T01:23:48.364Z,8.01
2019-02-22T01:26:20.250Z,8.02
2019-02-22T01:28:52.236Z,7.98
2019-02-22T01:31:24.208Z,7.93
2019-02-22T01:33:56.263Z,7.92
2019-02-22T01:36:28.233Z,7.86
2019-02-22T01:39:00.217Z,7.83
2019-02-22T01:41:32.172Z,7.75
2019-02-22T01:44:04.160Z,7.73
2019-02-22T01:46:36.134Z,7.65
2019-02-22T01:49:08.129Z,7.61
2019-02-22T01:51:40.077Z,7.62
2019-02-22T01:54:12.074Z,7.58
2019-02-22T01:56:44.004Z,7.59
2019-02-22T01:59:16.834Z,7.56
2019-02-22T02:01:48.798Z,7.64
2019-02-22T02:04:20.804Z,7.63
2019-02-22T02:06:52.744Z,7.62
2019-02-22T02:09:24.740Z,7.60
2019-02-22T02:11:56.674Z,7.59
2019-02-22T02:14:28.653Z,7.61
2019-02-22T02:17:00.608Z,7.62
2019-02-22T02:19:32.607Z,7.67
2019-02-22T02:22:04.575Z,7.67
2019-02-22T02:24:36.554Z,7.69
2019-02-22T02:27:08.506Z,7.66
2019-02-22T02:29:40.488Z,7.63
2019-02-22T02:32:12.480Z,7.62
2019-02-22T02:34:44.438Z,7.62
2019-02-22T02:37:16.464Z,7.65
2019-02-22T02:39:48.429Z,7.65
2019-02-22T02:42:20.461Z,7.67
2019-02-22T02:44:52.429Z,7.70
2019-02-22T02:47:24.427Z,7.72
2019-02-22T02:49:56.401Z,7.73
2019-02-22T02:52:28.388Z,7.72
2019-02-22T02:55:00.487Z,7.73
2019-02-22T02:57:32.401Z,7.76
2019-02-22T03:00:06.579Z,7.77
2019-02-22T03:02:38.553Z,7.74
2019-02-22T03:05:10.503Z,7.79
2019-02-22T03:07:46.334Z,7.79
2019-02-22T03:10:18.299Z,7.75
2019-02-22T03:12:50.296Z,7.81
2019-02-22T03:15:22.244Z,7.84
2019-02-22T03:17:54.263Z,7.88
2019-02-22T03:20:26.245Z,7.95
2019-02-22T03:22:58.231Z,7.98
2019-02-22T03:25:30.193Z,8.04
2019-02-22T03:28:02.196Z,8.15
2019-02-22T03:30:34.139Z,8.16
2019-02-22T03:33:06.121Z,8.09
2019-02-22T03:35:38.083Z,8.08
2019-02-22T03:38:10.075Z,8.09
2019-02-22T03:40:42.025Z,8.05
2019-02-22T03:43:14.006Z,8.03
2019-02-22T03:45:46.021Z,8.05
2019-02-22T03:48:17.978Z,8.09
2019-02-22T03:50:49.940Z,8.19
2019-02-22T03:53:28.507Z,8.24
2019-02-22T03:56:00.414Z,8.40
2019-02-22T03:58:32.602Z,8.47
2019-02-22T04:01:04.601Z,8.50
2019-02-22T04:03:36.635Z,8.57
2019-02-22T04:06:08.593Z,8.67
2019-02-22T04:08:40.597Z,8.74
2019-02-22T04:11:12.564Z,8.78
2019-02-22T04:13:44.561Z,8.86
2019-02-22T04:16:16.532Z,8.88
2019-02-22T04:18:48.533Z,9.00
2019-02-22T04:21:20.534Z,8.99
2019-02-22T04:23:52.640Z,9.00
2019-02-22T04:26:24.578Z,8.99
2019-02-22T04:28:56.553Z,9.00
2019-02-22T04:31:28.511Z,9.00
2019-02-22T04:34:00.511Z,9.02
2019-02-22T04:36:32.494Z,9.03
2019-02-22T04:39:04.867Z,9.00
2019-02-22T04:41:36.866Z,9.02
2019-02-22T04:44:08.840Z,9.00
2019-02-22T04:46:40.792Z,9.01
2019-02-22T04:49:12.786Z,9.02
2019-02-22T04:51:44.801Z,9.03
2019-02-22T04:54:16.856Z,9.00
2019-02-22T04:56:48.805Z,9.00
2019-02-22T04:59:20.815Z,8.99
2019-02-22T05:01:52.809Z,9.00
2019-02-22T05:04:24.834Z,8.97
2019-02-22T05:06:56.850Z,8.95
2019-02-22T05:09:28.894Z,8.95
2019-02-22T05:12:10.446Z,8.97
2019-02-22T05:14:34.796Z,8.94
2019-02-22T05:17:06.762Z,8.95
2019-02-22T05:19:38.751Z,8.93
2019-02-22T05:22:10.791Z,8.93
2019-02-22T05:24:42.812Z,8.93
2019-02-22T05:27:14.809Z,8.95
2019-02-22T05:29:46.770Z,8.92
2019-02-22T05:32:18.789Z,8.92
2019-02-22T05:34:50.843Z,8.93
2019-02-22T05:37:22.952Z,8.94
2019-02-22T05:39:54.939Z,8.94
2019-02-22T05:42:28.682Z,8.96
2019-02-22T05:45:00.868Z,8.94
2019-02-22T05:47:33.938Z,8.93
2019-02-22T05:50:05.918Z,8.94
2019-02-22T05:52:37.918Z,8.95
2019-02-22T05:55:09.997Z,8.97
2019-02-22T05:57:41.972Z,8.98
2019-02-22T06:00:14.853Z,8.99
2019-02-22T06:02:47.153Z,8.99
2019-02-22T06:05:19.192Z,9.00
2019-02-22T06:07:51.201Z,9.00
2019-02-22T06:10:23.179Z,8.98
2019-02-22T06:12:55.187Z,8.99
2019-02-22T06:15:27.176Z,8.97
2019-02-22T06:17:59.171Z,8.97
2019-02-22T06:20:31.141Z,8.98
2019-02-22T06:23:03.287Z,8.99
2019-02-22T06:25:35.301Z,8.98
2019-02-22T06:28:07.273Z,8.94
2019-02-22T06:30:39.263Z,8.95
2019-02-22T06:33:11.249Z,8.99
2019-02-22T06:35:43.217Z,8.98
2019-02-22T06:38:15.207Z,8.96
2019-02-22T06:40:48.255Z,8.95
2019-02-22T06:43:20.319Z,8.96
2019-02-22T06:45:52.293Z,8.97
2019-02-22T06:48:24.310Z,8.95
2019-02-22T06:50:56.304Z,8.98
2019-02-22T06:53:28.270Z,8.98
2019-02-22T06:56:00.279Z,8.97
2019-02-22T06:58:32.351Z,8.97
2019-02-22T07:01:04.366Z,8.95
2019-02-22T07:03:36.332Z,8.95
2019-02-22T07:06:08.334Z,8.99
2019-02-22T07:08:40.305Z,9.03
2019-02-22T07:11:19.975Z,8.97
2019-02-22T07:13:51.941Z,8.95
2019-02-22T07:16:23.990Z,8.94
2019-02-22T07:18:56.049Z,8.97
2019-02-22T07:21:38.844Z,8.98
2019-02-22T07:24:02.733Z,8.97
2019-02-22T07:26:34.985Z,8.98
2019-02-22T07:29:06.960Z,9.00
2019-02-22T07:31:38.966Z,9.01
2019-02-22T07:34:10.928Z,9.01
2019-02-22T07:36:42.920Z,9.02
2019-02-22T07:39:14.905Z,9.06
2019-02-22T07:41:46.903Z,9.06
2019-02-22T07:44:18.892Z,9.08
2019-02-22T07:46:50.998Z,9.07
2019-02-22T07:49:24.959Z,9.12
2019-02-22T07:51:57.003Z,9.17
2019-02-22T07:54:28.966Z,9.20
2019-02-22T07:57:01.001Z,9.26
2019-02-22T07:59:32.970Z,9.34
2019-02-22T08:02:05.177Z,9.39
2019-02-22T08:04:37.145Z,9.47
2019-02-22T08:07:09.157Z,9.57
2019-02-22T08:09:41.189Z,9.63
2019-02-22T08:12:13.217Z,9.66
2019-02-22T08:14:45.269Z,9.74
2019-02-22T08:17:17.287Z,9.82
2019-02-22T08:19:49.276Z,9.91
2019-02-22T08:22:21.328Z,10.10
2019-02-22T08:24:53.332Z,10.11
2019-02-22T08:27:25.330Z,10.07
2019-02-22T08:29:57.329Z,10.17
2019-02-22T08:32:29.342Z,10.24
2019-02-22T08:35:01.325Z,10.33
2019-02-22T08:37:33.322Z,10.45
2019-02-22T08:40:06.258Z,10.53
2019-02-22T08:42:38.245Z,10.65
2019-02-22T08:45:10.232Z,10.90
2019-02-22T08:47:42.257Z,10.87
2019-02-22T08:50:14.643Z,10.95
2019-02-22T08:52:47.050Z,11.00
2019-02-22T08:55:19.098Z,11.06
2019-02-22T08:57:51.110Z,11.05
2019-02-22T09:00:23.064Z,10.97
2019-02-22T09:02:55.082Z,11.07
2019-02-22T09:05:27.082Z,11.12
2019-02-22T09:07:59.109Z,11.17
2019-02-22T09:10:31.072Z,11.25
2019-02-22T09:13:03.166Z,11.37
2019-02-22T09:15:35.175Z,11.45
2019-02-22T09:18:07.174Z,11.44
2019-02-22T09:20:39.190Z,11.44
2019-02-22T09:23:11.238Z,11.48
2019-02-22T09:25:43.225Z,11.55
2019-02-22T09:28:15.232Z,11.71
2019-02-22T09:30:47.271Z,11.84
2019-02-22T09:33:19.218Z,11.94
2019-02-22T09:35:51.264Z,12.07
2019-02-22T09:38:23.229Z,11.83
2019-02-22T09:40:55.225Z,11.81
2019-02-22T09:43:27.202Z,11.77
2019-02-22T09:45:59.189Z,11.75
2019-02-22T09:48:31.166Z,11.66
2019-02-22T09:51:03.171Z,11.61
2019-02-22T09:53:35.131Z,11.54
2019-02-22T09:56:07.117Z,11.53
2019-02-22T09:58:39.082Z,11.60
2019-02-22T10:01:11.083Z,11.67
2019-02-22T10:03:43.052Z,11.73
2019-02-22T10:06:15.061Z,11.82
2019-02-22T10:08:47.043Z,11.83
2019-02-22T10:11:19.031Z,11.92
2019-02-22T10:13:51.008Z,11.93
2019-02-22T10:16:23.019Z,12.11
2019-02-22T10:18:54.968Z,11.94
2019-02-22T10:21:26.980Z,11.91
2019-02-22T10:23:58.934Z,11.94
2019-02-22T10:26:30.969Z,11.97
2019-02-22T10:29:02.921Z,12.06
2019-02-22T10:31:34.923Z,12.12
2019-02-22T10:34:06.883Z,12.15
2019-02-22T10:36:45.111Z,12.16
2019-02-22T10:39:12.788Z,12.21
2019-02-22T10:41:44.793Z,12.32
2019-02-22T10:44:17.944Z,12.35
2019-02-22T10:46:50.138Z,12.38
2019-02-22T10:49:22.207Z,12.32
2019-02-22T10:51:54.230Z,12.45
2019-02-22T10:54:26.221Z,12.51
2019-02-22T10:56:58.218Z,12.58
2019-02-22T10:59:30.207Z,12.66
2019-02-22T11:02:02.218Z,12.60
2019-02-22T11:04:34.215Z,12.55
2019-02-22T11:07:06.226Z,12.55
2019-02-22T11:09:38.217Z,12.59
2019-02-22T11:12:10.306Z,12.49
2019-02-22T11:14:42.306Z,12.48
2019-02-22T11:17:14.266Z,12.45
2019-02-22T11:19:46.268Z,12.48
2019-02-22T11:22:18.314Z,12.40
2019-02-22T11:25:09.872Z,12.47
2019-02-22T11:28:22.891Z,12.43
2019-02-22T11:30:54.886Z,12.51
2019-02-22T11:33:26.842Z,12.56
2019-02-22T11:35:58.803Z,12.62
2019-02-22T11:38:30.816Z,12.80
2019-02-22T11:41:43.654Z,12.97
2019-02-22T11:44:15.682Z,13.15
2019-02-22T11:46:47.744Z,13.10
2019-02-22T11:49:19.781Z,13.10
2019-02-22T11:51:51.782Z,13.06
2019-02-22T11:54:23.801Z,13.11
2019-02-22T11:56:55.849Z,13.15
2019-02-22T11:59:27.871Z,13.10
2019-02-22T12:02:01.105Z,13.08
2019-02-22T12:04:33.140Z,13.05
2019-02-22T12:07:06.381Z,13.03
2019-02-22T12:09:39.455Z,13.02
2019-02-22T12:12:11.488Z,13.00
2019-02-22T12:14:51.155Z,12.96
2019-02-22T12:17:17.555Z,13.00
2019-02-22T12:19:50.643Z,12.96
2019-02-22T12:22:22.642Z,13.06
2019-02-22T12:24:54.631Z,12.97
2019-02-22T12:27:26.677Z,12.82
2019-02-22T12:29:58.715Z,12.78
2019-02-22T12:32:30.754Z,12.80
2019-02-22T12:35:03.129Z,12.83
2019-02-22T12:37:35.205Z,12.77
2019-02-22T12:40:08.010Z,12.86
2019-02-22T12:42:40.008Z,12.89
2019-02-22T12:45:12.067Z,12.89
2019-02-22T12:47:44.074Z,12.94
2019-02-22T12:50:16.076Z,12.83
2019-02-22T12:52:48.119Z,12.81
2019-02-22T12:55:20.131Z,12.81
2019-02-22T12:57:52.219Z,13.00
2019-02-22T13:00:24.286Z,12.88
2019-02-22T13:03:01.966Z,12.80
2019-02-22T13:05:30.237Z,12.76
2019-02-22T13:08:03.977Z,12.80
2019-02-22T13:10:36.022Z,12.86
2019-02-22T13:13:08.186Z,13.00
2019-02-22T13:15:40.207Z,13.16
2019-02-22T13:18:12.208Z,13.46
2019-02-22T13:20:45.583Z,13.56
2019-02-22T13:23:17.784Z,13.58
2019-02-22T13:25:49.781Z,13.64
2019-02-22T13:28:21.836Z,13.49
2019-02-22T13:30:55.646Z,13.41
2019-02-22T13:33:27.683Z,13.49
2019-02-22T13:36:01.095Z,13.46
2019-02-22T13:38:33.203Z,13.55
2019-02-22T13:41:05.223Z,13.49
2019-02-22T13:43:37.268Z,13.57
2019-02-22T13:46:09.298Z,13.68
2019-02-22T13:48:43.114Z,13.62
2019-02-22T13:51:15.092Z,13.60
2019-02-22T13:53:47.184Z,13.54
2019-02-22T13:56:29.242Z,13.42
2019-02-22T13:58:53.159Z,13.48
2019-02-22T14:01:26.221Z,13.47
2019-02-22T14:03:58.429Z,13.39
2019-02-22T14:06:30.477Z,13.49
2019-02-22T14:09:04.405Z,13.41
2019-02-22T14:11:36.418Z,13.32
2019-02-22T14:14:08.466Z,13.33
2019-02-22T14:16:40.493Z,13.43
2019-02-22T14:19:12.491Z,13.38
2019-02-22T14:21:44.642Z,13.40
2019-02-22T14:24:16.618Z,13.40
2019-02-22T14:26:48.644Z,13.37
2019-02-22T14:29:22.864Z,13.30
2019-02-22T14:31:54.543Z,13.28
2019-02-22T14:34:26.576Z,13.16
2019-02-22T14:36:58.715Z,13.26
2019-02-22T14:39:30.692Z,13.25
2019-02-22T14:42:02.736Z,13.22
2019-02-22T14:44:35.058Z,13.23
2019-02-22T14:47:07.086Z,13.29
2019-02-22T14:49:39.295Z,13.18
2019-02-22T14:52:12.814Z,13.19
2019-02-22T14:54:44.941Z,13.27
2019-02-22T14:57:17.335Z,13.21
2019-02-22T14:59:49.555Z,13.17
2019-02-22T15:02:21.562Z,13.13
2019-02-22T15:04:53.523Z,13.31
2019-02-22T15:07:25.785Z,13.21
2019-02-22T15:09:59.030Z,13.15
2019-02-22T15:12:31.230Z,13.18
2019-02-22T15:15:04.186Z,13.12
2019-02-22T15:17:44.401Z,13.11
2019-02-22T15:20:16.431Z,13.12
2019-02-22T15:22:48.506Z,13.15
2019-02-22T15:25:20.492Z,13.14
2019-02-22T15:27:52.884Z,13.19
2019-02-22T15:30:24.888Z,13.16
2019-02-22T15:32:56.952Z,13.07
2019-02-22T15:35:28.941Z,13.06
2019-02-22T15:38:01.003Z,13.04
2019-02-22T15:40:33.064Z,12.98
2019-02-22T15:43:05.118Z,12.91
2019-02-22T15:45:37.162Z,12.95
2019-02-22T15:48:09.185Z,12.91
2019-02-22T15:50:41.471Z,12.88
2019-02-22T15:53:13.526Z,12.85
2019-02-22T15:55:45.552Z,12.83
2019-02-22T15:58:17.584Z,12.82
2019-02-22T16:00:50.668Z,12.80
2019-02-22T16:03:24.194Z,12.77
2019-02-22T16:05:57.590Z,12.77
2019-02-22T16:08:29.597Z,12.67
2019-02-22T16:11:01.646Z,12.68
2019-02-22T16:13:33.861Z,12.70
2019-02-22T16:16:06.014Z,12.69
2019-02-22T16:18:38.039Z,12.58
2019-02-22T16:21:10.125Z,12.50
2019-02-22T16:23:42.330Z,12.50
2019-02-22T16:26:16.278Z,12.53
2019-02-22T16:28:48.375Z,12.44
2019-02-22T16:31:22.221Z,12.38
2019-02-22T16:33:54.289Z,12.28
2019-02-22T16:36:26.347Z,12.31
2019-02-22T16:39:00.188Z,12.26
2019-02-22T16:41:32.193Z,12.24
2019-02-22T16:44:06.000Z,12.16
2019-02-22T16:46:38.009Z,12.13
2019-02-22T16:49:10.002Z,12.15
2019-02-22T16:51:42.325Z,12.06
2019-02-22T16:54:14.390Z,12.02
2019-02-22T16:56:46.567Z,11.97
2019-02-22T16:59:18.681Z,11.95
2019-02-22T17:01:50.746Z,11.90
2019-02-22T17:04:22.742Z,11.83
2019-02-22T17:06:55.032Z,11.80
2019-02-22T17:09:27.009Z,11.73
2019-02-22T17:12:06.330Z,11.62
2019-02-22T17:14:34.373Z,11.55
2019-02-22T17:17:06.443Z,11.53
2019-02-22T17:19:38.511Z,11.48
2019-02-22T17:22:10.571Z,11.38
2019-02-22T17:24:42.575Z,11.35
2019-02-22T17:27:14.709Z,11.25
2019-02-22T17:29:46.699Z,11.20
2019-02-22T17:32:18.916Z,11.18
2019-02-22T17:34:52.045Z,11.13
2019-02-22T17:37:24.113Z,11.07
2019-02-22T17:39:56.164Z,11.04
2019-02-22T17:42:28.380Z,11.01
2019-02-22T17:45:00.427Z,10.98
2019-02-22T17:47:32.660Z,10.89
2019-02-22T17:50:05.087Z,10.86
2019-02-22T17:52:38.958Z,10.79
2019-02-22T17:55:10.971Z,10.70
2019-02-22T17:57:43.023Z,10.66
2019-02-22T18:00:16.991Z,10.65
2019-02-22T18:02:49.074Z,10.61
2019-02-22T18:05:21.109Z,10.53
2019-02-22T18:07:53.230Z,10.50
2019-02-22T18:10:25.257Z,10.51
2019-02-22T18:12:57.292Z,10.47
2019-02-22T18:15:29.442Z,10.44
2019-02-22T18:18:01.536Z,10.27
2019-02-22T18:20:33.536Z,10.28
2019-02-22T18:23:05.608Z,10.31
2019-02-22T18:25:37.635Z,10.30
2019-02-22T18:28:09.747Z,10.26
2019-02-22T18:30:41.999Z,10.23
2019-02-22T18:33:14.023Z,10.20
2019-02-22T18:35:46.202Z,10.18
2019-02-22T18:38:19.297Z,10.18
2019-02-22T18:40:51.312Z,10.12
2019-02-22T18:43:23.381Z,10.07
2019-02-22T18:45:55.547Z,9.95
2019-02-22T18:48:27.594Z,9.84
2019-02-22T18:51:01.442Z,9.71
2019-02-22T18:53:33.478Z,9.68
2019-02-22T18:56:07.393Z,9.60
2019-02-22T18:58:39.461Z,9.48
2019-02-22T19:01:11.479Z,9.33
2019-02-22T19:03:43.491Z,9.28
2019-02-22T19:06:15.598Z,9.18
2019-02-22T19:08:47.700Z,9.06
2019-02-22T19:11:19.852Z,8.96
2019-02-22T19:13:51.945Z,8.89
2019-02-22T19:16:24.121Z,8.76
2019-02-22T19:18:56.143Z,8.64
2019-02-22T19:21:28.251Z,8.56
2019-02-22T19:24:00.401Z,8.52
2019-02-22T19:26:32.831Z,8.47
2019-02-22T19:29:04.913Z,8.46
2019-02-22T19:31:36.992Z,8.42
2019-02-22T19:34:09.065Z,8.31
2019-02-22T19:36:41.104Z,8.24
2019-02-22T19:39:13.848Z,8.20
2019-02-22T19:41:45.968Z,8.07
2019-02-22T19:44:18.022Z,8.01
2019-02-22T19:46:50.147Z,7.94
2019-02-22T19:49:22.539Z,7.87
2019-02-22T19:51:54.646Z,7.76
2019-02-22T19:54:26.806Z,7.70
2019-02-22T19:56:58.859Z,7.59
2019-02-22T19:59:30.923Z,7.50
2019-02-22T20:02:03.057Z,7.40
2019-02-22T20:04:36.587Z,7.36
2019-02-22T20:07:08.808Z,7.34
2019-02-22T20:09:42.219Z,7.23
2019-02-22T20:12:14.384Z,7.25
2019-02-22T20:14:46.485Z,7.16
2019-02-22T20:17:18.720Z,7.13
2019-02-22T20:19:50.941Z,7.15
2019-02-22T20:22:23.007Z,7.10
2019-02-22T20:24:55.269Z,7.05
2019-02-22T20:27:27.390Z,7.02
2019-02-22T20:29:59.972Z,7.02
2019-02-22T20:32:32.127Z,6.96
2019-02-22T20:35:06.376Z,6.92
2019-02-22T20:37:39.018Z,6.93
2019-02-22T20:40:11.196Z,6.92
2019-02-22T20:42:46.326Z,6.90
2019-02-22T20:45:18.538Z,6.87
2019-02-22T20:47:50.587Z,7.04
2019-02-22T20:50:22.775Z,6.89
2019-02-22T20:52:55.917Z,6.79
2019-02-22T20:55:27.968Z,6.85
2019-02-22T20:58:01.108Z,6.88
2019-02-22T21:00:40.408Z,6.72
2019-02-22T21:03:12.440Z,6.88
2019-02-22T21:05:44.708Z,6.77
2019-02-22T21:08:16.861Z,6.72
2019-02-22T21:10:50.140Z,6.63
2019-02-22T21:13:22.250Z,6.71
2019-02-22T21:15:54.368Z,6.67
2019-02-22T21:18:26.429Z,6.68
2019-02-22T21:20:58.483Z,6.73
2019-02-22T21:23:33.541Z,6.79
2019-02-22T21:26:05.657Z,6.75
2019-02-22T21:28:38.802Z,6.72
2019-02-22T21:31:11.083Z,6.73
2019-02-22T21:33:46.325Z,6.71
2019-02-22T21:36:20.326Z,6.68
2019-02-22T21:38:52.349Z,6.70
2019-02-22T21:41:24.514Z,6.67
2019-02-22T21:43:58.331Z,6.62
2019-02-22T21:46:30.363Z,6.47
2019-02-22T21:49:02.372Z,6.34
2019-02-22T21:51:36.571Z,6.19
2019-02-22T21:54:08.816Z,6.19
2019-02-22T21:56:40.894Z,6.22
2019-02-22T21:59:15.682Z,6.10
2019-02-22T22:01:47.753Z,6.00
2019-02-22T22:04:19.790Z,6.00
2019-02-22T22:06:51.847Z,5.95
2019-02-22T22:09:24.076Z,5.95
2019-02-22T22:11:56.193Z,5.98
2019-02-22T22:14:28.228Z,5.86
2019-02-22T22:17:00.280Z,5.88
2019-02-22T22:19:32.337Z,5.82
2019-02-22T22:22:04.523Z,5.74
2019-02-22T22:24:39.273Z,5.82
2019-02-22T22:27:11.399Z,5.80
2019-02-22T22:29:43.480Z,5.78
2019-02-22T22:32:15.552Z,5.81
2019-02-22T22:34:49.616Z,5.86
2019-02-22T22:37:21.638Z,5.82
2019-02-22T22:39:55.494Z,5.73
2019-02-22T22:42:27.524Z,5.70
2019-02-22T22:44:59.637Z,5.58
2019-02-22T22:47:31.623Z,5.50
2019-02-22T22:50:04.402Z,5.43
2019-02-22T22:52:36.362Z,5.54
2019-02-22T22:55:08.813Z,5.66
2019-02-22T22:57:40.808Z,5.56
2019-02-22T23:00:58.997Z,5.50
2019-02-22T23:03:31.043Z,5.62
2019-02-22T23:06:03.586Z,5.56
2019-02-22T23:08:35.637Z,5.56
2019-02-22T23:11:07.649Z,5.55
2019-02-22T23:13:39.645Z,5.56
2019-02-22T23:16:12.184Z,5.41
2019-02-22T23:18:44.218Z,5.37
2019-02-22T23:21:16.238Z,5.34
2019-02-22T23:23:48.271Z,5.33
2019-02-22T23:26:20.256Z,5.29
2019-02-22T23:28:52.323Z,5.23
2019-02-22T23:31:24.439Z,5.24
2019-02-22T23:33:56.428Z,5.26
2019-02-22T23:36:28.463Z,5.19
2019-02-22T23:39:00.467Z,5.14
2019-02-22T23:41:32.497Z,5.15
2019-02-22T23:44:04.617Z,5.15
2019-02-22T23:46:36.681Z,5.12
2019-02-22T23:49:13.229Z,5.09
2019-02-22T23:51:42.551Z,5.10
2019-02-22T23:54:14.527Z,5.08
2019-02-22T23:56:46.553Z,4.89
2019-02-22T23:59:18.561Z,4.78
